Time;durP1;ratioP1;P1;durP2;ratioP2;P2;SDS_P1;SDS_P2;PMS_P1;PMS_P2;Temp;Humidity;BMP_temperature;BMP_pressure;BME280_temperature;BME280_humidity;BME280_pressure;Samples;Min_cycle;Max_cycle;Signal;HPM_P1;HPM_P2
2022/10/26 00:01:21;;;;;;;25.33;11.27;;;10.30;99.90;;;;;;4824780;29;20061;-84
2022/10/26 00:03:46;;;;;;;21.83;10.27;;;10.40;99.90;;;;;;4854489;29;20045;-84
2022/10/26 00:06:15;;;;;;;20.05;9.48;;;10.50;99.90;;;;;;4855602;29;20372;-85
2022/10/26 00:08:41;;;;;;;17.17;9.43;;;10.10;99.90;;;;;;4854363;29;20244;-84
2022/10/26 00:11:08;;;;;;;20.55;10.05;;;10.20;99.90;;;;;;4825738;29;20132;-84
2022/10/26 00:13:35;;;;;;;15.65;9.13;;;10.20;99.90;;;;;;4855135;29;20407;-84
2022/10/26 00:16:00;;;;;;;17.27;9.40;;;10.00;99.90;;;;;;4855280;29;20052;-84
2022/10/26 00:18:26;;;;;;;23.13;10.52;;;10.10;99.90;;;;;;4839846;29;20053;-84
2022/10/26 00:20:52;;;;;;;20.48;9.18;;;10.10;99.90;;;;;;4854500;29;20098;-85
2022/10/26 00:23:18;;;;;;;25.05;10.70;;;10.10;99.90;;;;;;4825312;29;20045;-85
2022/10/26 00:25:44;;;;;;;24.15;10.60;;;10.40;99.90;;;;;;4838609;29;20136;-85
2022/10/26 00:28:09;;;;;;;22.38;9.82;;;10.00;99.90;;;;;;4839459;29;20117;-85
2022/10/26 00:30:38;;;;;;;21.48;10.07;;;10.00;99.90;;;;;;4840449;29;20514;-85
2022/10/26 00:33:04;;;;;;;25.27;11.15;;;10.30;99.90;;;;;;4854030;29;20410;-85
2022/10/26 00:35:29;;;;;;;20.48;9.90;;;10.10;99.90;;;;;;4839558;29;20073;-85
2022/10/26 00:37:55;;;;;;;24.65;11.02;;;10.20;99.90;;;;;;4839280;29;20082;-85
2022/10/26 00:40:25;;;;;;;19.73;10.02;;;9.90;99.90;;;;;;4855358;29;20160;-84
2022/10/26 00:42:51;;;;;;;19.00;10.43;;;10.10;99.90;;;;;;4838512;29;20456;-85
2022/10/26 00:45:19;;;;;;;26.58;10.18;;;10.10;99.90;;;;;;4839800;29;20153;-85
2022/10/26 00:47:51;;;;;;;22.40;10.70;;;10.00;99.90;;;;;;4838698;29;20049;-85
2022/10/26 00:50:23;;;;;;;18.90;10.10;;;10.00;99.90;;;;;;4854179;29;20042;-85
2022/10/26 00:52:51;;;;;;;18.92;10.57;;;10.30;99.90;;;;;;4838806;29;20037;-85
2022/10/26 00:55:20;;;;;;;21.45;10.88;;;9.90;99.90;;;;;;4839969;29;20132;-85
2022/10/26 00:57:47;;;;;;;26.63;10.27;;;10.20;99.90;;;;;;4838222;29;20490;-85
2022/10/26 01:00:13;;;;;;;20.90;9.48;;;10.00;99.90;;;;;;4824800;29;20064;-85
2022/10/26 01:02:40;;;;;;;24.42;8.90;;;9.80;99.90;;;;;;4837983;29;20130;-85
2022/10/26 01:05:06;;;;;;;19.42;10.73;;;9.90;99.90;;;;;;4824998;29;20486;-85
2022/10/26 01:07:32;;;;;;;25.48;11.15;;;9.90;99.90;;;;;;4839753;29;20346;-84
2022/10/26 01:09:59;;;;;;;15.73;10.95;;;10.00;99.90;;;;;;4823574;29;20542;-85
2022/10/26 01:12:25;;;;;;;23.55;11.05;;;9.80;99.90;;;;;;4839677;29;20053;-85
2022/10/26 01:14:51;;;;;;;23.55;11.35;;;10.10;99.90;;;;;;4854540;29;20046;-85
2022/10/26 01:17:37;;;;;;;20.23;11.93;;;9.90;99.90;;;;;;4830319;29;20064;-84
2022/10/26 01:20:20;;;;;;;16.73;11.52;;;9.90;99.90;;;;;;4854834;29;20057;-85
2022/10/26 01:23:00;;;;;;;24.67;11.80;;;9.80;99.90;;;;;;4854563;29;20474;-85
2022/10/26 01:25:45;;;;;;;22.38;11.57;;;9.80;99.90;;;;;;4824243;29;20050;-85
2022/10/26 01:28:28;;;;;;;29.83;11.38;;;9.80;99.90;;;;;;4854795;29;20046;-85
2022/10/26 01:30:57;;;;;;;24.40;11.30;;;9.90;99.90;;;;;;4853971;29;20474;-85
2022/10/26 01:33:32;;;;;;;22.75;12.05;;;9.90;99.90;;;;;;4837995;29;20049;-85
2022/10/26 01:36:09;;;;;;;17.65;10.73;;;9.90;99.90;;;;;;4854294;29;20124;-85
2022/10/26 01:38:39;;;;;;;24.30;12.20;;;9.80;99.90;;;;;;4823378;29;20097;-85
2022/10/26 01:41:19;;;;;;;23.48;11.82;;;9.80;99.90;;;;;;4854527;29;20509;-84
2022/10/26 01:43:52;;;;;;;21.70;11.63;;;9.70;99.90;;;;;;4869001;29;20053;-85
2022/10/26 01:46:21;;;;;;;22.45;12.27;;;9.80;99.90;;;;;;4853825;29;20058;-85
2022/10/26 01:48:51;;;;;;;22.25;13.00;;;9.90;99.90;;;;;;4837927;29;20049;-85
2022/10/26 01:51:18;;;;;;;26.35;12.88;;;9.70;99.90;;;;;;4838911;29;20056;-85
2022/10/26 01:53:46;;;;;;;17.30;11.80;;;9.70;99.90;;;;;;4852846;29;20129;-85
2022/10/26 01:56:23;;;;;;;24.45;11.85;;;9.60;99.90;;;;;;4854511;29;20054;-85
2022/10/26 01:59:07;;;;;;;23.00;12.57;;;9.90;99.90;;;;;;4838204;29;20052;-85
2022/10/26 02:01:44;;;;;;;19.52;11.82;;;9.60;99.90;;;;;;4839049;29;20105;-85
2022/10/26 02:04:24;;;;;;;25.38;12.57;;;9.50;99.90;;;;;;4853466;29;20114;-85
2022/10/26 02:06:57;;;;;;;21.60;12.50;;;9.40;99.90;;;;;;4853168;29;20056;-85
2022/10/26 02:09:28;;;;;;;22.35;13.13;;;9.50;99.90;;;;;;4853903;29;20088;-85
2022/10/26 02:11:55;;;;;;;23.30;13.32;;;9.40;99.90;;;;;;4823455;29;20053;-85
2022/10/26 02:14:33;;;;;;;30.65;13.18;;;9.30;99.90;;;;;;4837507;29;20054;-85
2022/10/26 02:17:15;;;;;;;25.27;13.80;;;9.30;99.90;;;;;;4823047;29;20062;-85
2022/10/26 02:19:47;;;;;;;27.58;13.75;;;9.40;99.90;;;;;;4853323;29;20095;-85
2022/10/26 02:22:18;;;;;;;27.00;13.80;;;9.20;99.90;;;;;;4853484;29;20557;-85
2022/10/26 02:24:45;;;;;;;32.45;15.55;;;9.20;99.90;;;;;;4853597;29;20466;-85
2022/10/26 02:27:19;;;;;;;23.98;13.70;;;9.40;99.90;;;;;;4853535;29;20053;-85
2022/10/26 02:29:47;;;;;;;28.58;13.73;;;9.20;99.90;;;;;;4853730;29;20109;-85
2022/10/26 02:32:14;;;;;;;23.65;13.50;;;9.10;99.90;;;;;;4871196;29;20105;-85
2022/10/26 02:34:44;;;;;;;22.67;13.45;;;9.00;99.90;;;;;;4871042;29;20053;-86
2022/10/26 02:37:14;;;;;;;32.22;15.82;;;8.90;99.90;;;;;;4872810;29;20042;-85
2022/10/26 02:39:40;;;;;;;28.35;15.05;;;8.90;99.90;;;;;;4856828;29;20049;-85
2022/10/26 02:42:08;;;;;;;27.77;15.15;;;8.80;99.90;;;;;;4841227;29;20049;-85
2022/10/26 02:44:47;;;;;;;22.92;13.25;;;8.80;99.90;;;;;;4856710;29;20188;-85
2022/10/26 02:47:13;;;;;;;30.20;15.27;;;8.70;99.90;;;;;;4825778;29;20141;-85
2022/10/26 02:49:39;;;;;;;29.05;14.77;;;8.70;99.90;;;;;;4855776;29;20128;-85
2022/10/26 02:52:15;;;;;;;29.77;16.75;;;8.70;99.90;;;;;;4856705;29;20548;-85
2022/10/26 02:54:48;;;;;;;27.55;16.00;;;8.70;99.90;;;;;;4872433;29;20049;-85
2022/10/26 02:57:16;;;;;;;;;;;8.60;99.90;;;;;;4841080;29;20153;-85
2022/10/26 02:59:47;;;;;;;25.15;16.38;;;8.60;99.90;;;;;;4856796;29;19928;-85
2022/10/26 03:02:18;;;;;;;31.25;16.58;;;9.30;99.90;;;;;;4856176;29;20057;-85
2022/10/26 03:04:44;;;;;;;30.75;17.30;;;8.60;99.90;;;;;;4840799;29;20102;-85
2022/10/26 03:07:09;;;;;;;26.40;16.10;;;8.70;99.90;;;;;;4826240;29;20045;-85
2022/10/26 03:09:35;;;;;;;26.85;15.32;;;9.20;99.90;;;;;;4855963;29;20155;-85
2022/10/26 03:12:01;;;;;;;23.27;15.05;;;9.00;99.90;;;;;;4825692;29;20121;-85
2022/10/26 03:14:26;;;;;;;31.75;17.00;;;8.40;99.90;;;;;;4856486;29;20519;-84
2022/10/26 03:16:52;;;;;;;30.75;16.55;;;8.40;99.90;;;;;;4855056;29;20124;-85
2022/10/26 03:19:17;;;;;;;25.45;15.02;;;8.40;99.90;;;;;;4827291;29;20049;-85
2022/10/26 03:21:43;;;;;;;35.08;16.05;;;8.30;99.90;;;;;;4825656;29;20081;-85
2022/10/26 03:24:09;;;;;;;26.85;15.00;;;8.40;99.90;;;;;;4855372;29;20037;-85
2022/10/26 03:26:34;;;;;;;32.42;16.92;;;8.20;99.90;;;;;;4826311;29;20474;-85
2022/10/26 03:29:00;;;;;;;23.92;14.65;;;8.30;99.90;;;;;;4841412;29;20402;-85
2022/10/26 03:31:26;;;;;;;25.73;15.10;;;8.30;99.90;;;;;;4874165;29;20045;-85
2022/10/26 03:33:51;;;;;;;33.83;16.75;;;8.20;99.90;;;;;;4858357;29;20052;-85
2022/10/26 03:36:17;;;;;;;25.23;14.98;;;8.20;99.90;;;;;;4874715;29;20056;-85
2022/10/26 03:38:43;;;;;;;31.77;17.05;;;8.20;99.90;;;;;;4874149;29;20045;-86
2022/10/26 03:41:08;;;;;;;40.85;17.60;;;8.60;99.90;;;;;;4875276;29;20053;-86
2022/10/26 03:43:34;;;;;;;26.08;16.15;;;8.10;99.90;;;;;;4873801;29;20601;-85
2022/10/26 03:45:59;;;;;;;34.72;18.25;;;8.10;99.90;;;;;;4874243;29;20525;-85
2022/10/26 03:48:26;;;;;;;32.75;18.58;;;8.10;99.90;;;;;;4873943;29;20055;-85
2022/10/26 03:50:56;;;;;;;42.22;19.50;;;8.50;99.90;;;;;;4859149;29;20060;-86
2022/10/26 03:53:22;;;;;;;31.27;18.23;;;8.10;99.90;;;;;;4858196;29;20112;-86
2022/10/26 03:55:48;;;;;;;32.13;17.83;;;8.20;99.90;;;;;;4874686;29;20139;-85
2022/10/26 03:58:13;;;;;;;33.20;19.45;;;8.80;99.90;;;;;;4874757;29;20108;-85
2022/10/26 04:00:39;;;;;;;37.88;19.42;;;8.20;99.90;;;;;;4858075;29;20088;-85
2022/10/26 04:03:04;;;;;;;31.13;18.67;;;8.40;99.90;;;;;;4858437;29;20068;-85
2022/10/26 04:05:31;;;;;;;37.22;20.70;;;8.40;99.90;;;;;;4871266;29;20069;-85
2022/10/26 04:07:59;;;;;;;41.78;20.58;;;8.30;99.90;;;;;;4855558;29;20050;-85
2022/10/26 04:10:26;;;;;;;38.25;20.63;;;9.10;99.90;;;;;;4855765;29;20054;-86
2022/10/26 04:12:53;;;;;;;37.55;19.92;;;8.60;99.90;;;;;;4854903;29;20049;-85
2022/10/26 04:15:19;;;;;;;40.50;19.45;;;8.70;99.90;;;;;;4855887;29;20056;-85
2022/10/26 04:17:45;;;;;;;40.03;21.13;;;9.20;99.90;;;;;;4854318;29;20618;-85
2022/10/26 04:20:11;;;;;;;37.33;20.70;;;8.60;99.90;;;;;;4855075;29;20069;-85
2022/10/26 04:22:37;;;;;;;38.58;20.42;;;8.70;99.90;;;;;;4871133;29;20550;-85
2022/10/26 04:25:04;;;;;;;34.40;19.35;;;8.70;99.90;;;;;;4888109;29;20048;-85
2022/10/26 04:27:30;;;;;;;34.05;19.20;;;8.60;99.90;;;;;;4871415;29;20049;-85
2022/10/26 04:29:55;;;;;;;35.35;18.75;;;8.70;99.90;;;;;;4873778;29;20128;-85
2022/10/26 04:32:21;;;;;;;30.65;17.83;;;9.10;99.90;;;;;;4872734;29;20084;-85
2022/10/26 04:34:47;;;;;;;29.42;18.02;;;8.80;99.90;;;;;;4857239;29;20080;-85
2022/10/26 04:37:12;;;;;;;33.72;18.20;;;8.80;99.90;;;;;;4873703;29;20410;-85
2022/10/26 04:39:38;;;;;;;36.78;18.10;;;8.60;99.90;;;;;;4858322;29;20100;-85
2022/10/26 04:42:04;;;;;;;31.15;18.52;;;9.10;99.90;;;;;;4841757;29;20458;-85
2022/10/26 04:44:29;;;;;;;28.10;17.70;;;8.70;99.90;;;;;;4873773;29;20048;-85
2022/10/26 04:46:55;;;;;;;36.67;19.90;;;8.70;99.90;;;;;;4842236;29;20099;-84
2022/10/26 04:49:21;;;;;;;31.88;18.95;;;8.50;99.90;;;;;;4856710;29;20041;-84
2022/10/26 04:51:46;;;;;;;30.30;17.73;;;8.60;99.90;;;;;;4873476;29;20052;-85
2022/10/26 04:54:12;;;;;;;29.15;17.35;;;9.20;99.90;;;;;;4872599;29;20116;-85
2022/10/26 04:56:38;;;;;;;33.22;19.67;;;8.50;99.90;;;;;;4842219;29;20053;-85
2022/10/26 04:59:03;;;;;;;33.13;18.75;;;8.80;99.90;;;;;;4857966;29;20045;-85
2022/10/26 05:01:30;;;;;;;38.38;20.00;;;9.00;99.90;;;;;;4842612;29;20525;-85
2022/10/26 05:03:56;;;;;;;33.10;18.45;;;8.60;99.90;;;;;;4872008;29;20398;-85
2022/10/26 05:06:22;;;;;;;37.20;19.08;;;8.80;99.90;;;;;;4849143;29;20160;-85
2022/10/26 05:08:48;;;;;;;36.63;19.90;;;8.70;99.90;;;;;;4869100;29;20471;-85
2022/10/26 05:11:13;;;;;;;35.65;19.70;;;8.90;99.90;;;;;;4854459;29;20100;-85
2022/10/26 05:13:39;;;;;;;35.45;18.83;;;8.90;99.90;;;;;;4838988;29;20045;-85
2022/10/26 05:16:05;;;;;;;34.35;19.10;;;9.20;99.90;;;;;;4838818;29;20049;-85
2022/10/26 05:18:31;;;;;;;35.88;20.73;;;9.00;99.90;;;;;;4823387;29;20491;-85
2022/10/26 05:20:57;;;;;;;37.60;20.52;;;9.20;99.90;;;;;;4860903;29;20056;-85
2022/10/26 05:23:23;;;;;;;38.97;20.48;;;9.30;99.90;;;;;;4837874;29;20045;-85
2022/10/26 05:25:48;;;;;;;37.40;21.95;;;9.10;99.90;;;;;;4839268;29;20060;-85
2022/10/26 05:28:15;;;;;;;40.78;20.52;;;9.20;99.90;;;;;;4854433;29;20053;-85
2022/10/26 05:30:42;;;;;;;45.00;19.45;;;9.50;99.90;;;;;;4853131;29;20061;-85
2022/10/26 05:33:10;;;;;;;39.33;19.95;;;9.50;99.90;;;;;;4869407;29;20050;-85
2022/10/26 05:35:36;;;;;;;43.97;20.83;;;9.80;99.90;;;;;;4854146;29;20054;-85
2022/10/26 05:38:12;;;;;;;36.90;21.52;;;9.60;99.90;;;;;;4865927;29;20052;-85
2022/10/26 05:40:45;;;;;;;47.55;21.83;;;9.40;99.90;;;;;;4857680;29;20056;-85
2022/10/26 05:43:10;;;;;;;28.73;18.77;;;9.40;99.90;;;;;;4857531;29;20052;-86
2022/10/26 05:45:36;;;;;;;29.52;19.20;;;9.60;99.90;;;;;;4841953;29;20045;-85
2022/10/26 05:48:01;;;;;;;37.00;19.73;;;9.50;99.90;;;;;;4856792;29;20079;-85
2022/10/26 05:50:27;;;;;;;35.15;20.77;;;9.70;99.90;;;;;;4872669;29;20355;-85
2022/10/26 05:52:54;;;;;;;32.25;19.83;;;9.60;99.90;;;;;;4856269;29;20476;-85
2022/10/26 05:55:20;;;;;;;30.00;18.70;;;9.70;99.90;;;;;;4854320;29;20057;-85
2022/10/26 05:57:46;;;;;;;33.35;19.08;;;9.50;99.90;;;;;;4838752;29;20052;-85
2022/10/26 06:00:18;;;;;;;31.95;19.20;;;9.60;99.90;;;;;;4838274;29;20132;-85
2022/10/26 06:03:07;;;;;;;33.35;19.70;;;9.70;99.90;;;;;;4853703;29;20418;-85
2022/10/26 06:05:40;;;;;;;30.80;18.58;;;9.70;99.90;;;;;;4838648;29;20914;-85
2022/10/26 06:08:09;;;;;;;36.70;19.08;;;9.60;99.90;;;;;;4857608;29;20046;-85
2022/10/26 06:10:36;;;;;;;33.85;18.08;;;9.70;99.90;;;;;;4857811;29;20522;-85
2022/10/26 06:13:01;;;;;;;25.88;17.13;;;9.60;99.90;;;;;;4825898;29;20120;-85
2022/10/26 06:15:30;;;;;;;30.83;17.38;;;9.60;99.90;;;;;;4857734;29;20573;-85
2022/10/26 06:18:07;;;;;;;27.58;17.40;;;9.70;99.90;;;;;;4840752;29;20045;-85
2022/10/26 06:20:53;;;;;;;28.30;16.67;;;9.70;99.90;;;;;;4872397;29;20046;-84
2022/10/26 06:23:44;;;;;;;34.65;17.20;;;9.80;99.90;;;;;;4856986;29;20072;-85
2022/10/26 06:26:35;;;;;;;30.25;15.30;;;9.70;99.90;;;;;;4857045;29;20050;-85
2022/10/26 06:29:23;;;;;;;28.63;16.35;;;9.90;99.90;;;;;;4857311;29;20459;-85
2022/10/26 06:31:49;;;;;;;31.83;16.52;;;9.70;99.90;;;;;;4856763;29;20128;-85
2022/10/26 06:34:23;;;;;;;32.47;16.02;;;9.80;99.90;;;;;;4825427;29;20128;-85
2022/10/26 06:36:50;;;;;;;33.47;15.82;;;9.70;99.90;;;;;;4856601;29;20041;-86
2022/10/26 06:39:16;;;;;;;26.27;15.73;;;9.80;99.90;;;;;;4857060;29;20060;-85
2022/10/26 06:41:42;;;;;;;29.73;15.77;;;9.90;99.90;;;;;;4840698;29;20141;-85
2022/10/26 06:44:14;;;;;;;25.98;15.38;;;10.00;99.90;;;;;;4858109;29;20045;-85
2022/10/26 06:46:51;;;;;;;28.50;14.73;;;9.90;99.90;;;;;;4875198;29;20584;-85
2022/10/26 06:49:26;;;;;;;27.02;14.75;;;10.10;99.90;;;;;;4874436;29;20049;-85
2022/10/26 06:51:58;;;;;;;23.65;14.30;;;10.10;99.90;;;;;;4875213;29;20045;-85
2022/10/26 06:54:30;;;;;;;26.65;15.43;;;10.20;99.90;;;;;;4847466;29;20045;-85
2022/10/26 06:56:56;;;;;;;31.40;17.17;;;10.00;99.90;;;;;;4860393;29;20132;-85
2022/10/26 06:59:37;;;;;;;24.35;15.52;;;10.20;99.90;;;;;;4875560;29;20129;-85
2022/10/26 07:02:03;;;;;;;28.55;15.70;;;10.20;99.90;;;;;;4874487;29;20049;-85
2022/10/26 07:04:29;;;;;;;26.65;15.52;;;10.30;99.90;;;;;;4875023;29;20041;-85
2022/10/26 07:06:56;;;;;;;26.00;15.63;;;10.20;99.90;;;;;;4859872;29;20059;-84
2022/10/26 07:09:22;;;;;;;31.48;15.38;;;10.20;99.90;;;;;;4874699;29;20087;-84
2022/10/26 07:11:47;;;;;;;25.52;15.02;;;10.50;99.90;;;;;;4875413;29;20044;-85
2022/10/26 07:14:13;;;;;;;25.90;14.55;;;10.30;99.90;;;;;;4875081;29;20045;-85
2022/10/26 07:16:39;;;;;;;25.67;13.77;;;10.40;99.90;;;;;;4874752;29;20049;-85
2022/10/26 07:19:05;;;;;;;32.92;14.25;;;10.60;99.90;;;;;;4858775;29;20053;-85
2022/10/26 07:21:30;;;;;;;29.38;12.98;;;10.50;99.90;;;;;;4860176;29;20049;-85
2022/10/26 07:23:56;;;;;;;21.98;12.20;;;10.40;99.90;;;;;;4874339;29;20168;-85
2022/10/26 07:26:24;;;;;;;25.05;12.88;;;11.20;99.90;;;;;;4869364;29;20062;-84
2022/10/26 07:28:51;;;;;;;26.85;12.35;;;10.50;99.90;;;;;;4856210;29;20392;-84
2022/10/26 07:31:16;;;;;;;20.25;12.18;;;10.50;99.90;;;;;;4840328;29;20049;-85
2022/10/26 07:33:43;;;;;;;20.98;11.80;;;10.60;99.90;;;;;;4833476;29;20129;-85
2022/10/26 07:36:09;;;;;;;21.60;11.65;;;10.80;99.90;;;;;;4841366;29;20049;-84
2022/10/26 07:38:36;;;;;;;19.55;11.68;;;10.80;99.90;;;;;;4854962;29;20058;-85
2022/10/26 07:41:03;;;;;;;23.15;11.07;;;11.10;99.90;;;;;;4840111;29;20057;-85
2022/10/26 07:43:28;;;;;;;21.20;11.63;;;10.80;99.90;;;;;;4854633;29;20532;-85
2022/10/26 07:45:54;;;;;;;24.30;12.20;;;10.80;99.90;;;;;;4842970;29;20541;-85
2022/10/26 07:48:20;;;;;;;17.08;11.07;;;10.80;99.90;;;;;;4863306;29;20045;-84
2022/10/26 07:50:46;;;;;;;21.52;11.07;;;11.30;99.90;;;;;;4849511;29;20056;-85
2022/10/26 07:53:12;;;;;;;21.35;10.55;;;10.90;99.90;;;;;;4864891;29;20418;-85
2022/10/26 07:55:38;;;;;;;22.77;10.23;;;11.00;99.90;;;;;;4848731;29;20073;-85
2022/10/26 07:58:04;;;;;;;16.17;9.70;;;10.90;99.90;;;;;;4849451;29;20446;-86
2022/10/26 08:00:29;;;;;;;14.30;10.20;;;11.00;99.90;;;;;;4848577;29;20106;-86
2022/10/26 08:02:56;;;;;;;23.05;9.73;;;11.30;99.90;;;;;;4871037;29;20128;-85
2022/10/26 08:05:22;;;;;;;16.27;9.02;;;11.10;99.90;;;;;;4848802;29;20398;-85
2022/10/26 08:07:47;;;;;;;16.52;9.43;;;11.20;99.90;;;;;;4849000;29;20092;-84
2022/10/26 08:10:14;;;;;;;20.35;9.30;;;11.40;99.90;;;;;;4864568;29;20065;-84
2022/10/26 08:12:41;;;;;;;16.25;9.38;;;11.40;99.90;;;;;;4862045;29;20481;-85
2022/10/26 08:15:08;;;;;;;16.88;9.25;;;11.50;99.90;;;;;;4845228;29;20502;-84
2022/10/26 08:17:34;;;;;;;17.35;9.75;;;11.40;99.90;;;;;;4839527;29;20095;-84
2022/10/26 08:19:59;;;;;;;16.48;8.85;;;11.40;99.90;;;;;;4854060;29;20053;-84
2022/10/26 08:22:28;;;;;;;14.30;8.75;;;11.60;99.90;;;;;;4855167;29;20563;-84
2022/10/26 08:24:54;;;;;;;17.33;8.45;;;11.60;99.90;;;;;;4839535;29;20049;-85
2022/10/26 08:27:19;;;;;;;14.23;8.35;;;11.70;99.90;;;;;;4854753;29;20053;-84
2022/10/26 08:29:45;;;;;;;15.15;7.78;;;11.90;99.90;;;;;;4854555;29;20140;-84
2022/10/26 08:32:11;;;;;;;20.13;8.20;;;11.90;99.90;;;;;;4855264;29;20128;-84
2022/10/26 08:34:36;;;;;;;16.63;7.75;;;11.90;99.90;;;;;;4854160;29;20061;-82
2022/10/26 08:37:02;;;;;;;14.48;7.75;;;12.10;99.90;;;;;;4854911;29;20060;-81
2022/10/26 08:39:29;;;;;;;16.17;7.40;;;12.10;99.90;;;;;;4839964;29;20383;-82
2022/10/26 08:42:06;;;;;;;16.05;7.20;;;12.10;99.90;;;;;;4838663;29;20124;-82
2022/10/26 08:44:44;;;;;;;13.35;6.43;;;12.30;99.90;;;;;;4855350;29;20049;-82
2022/10/26 08:47:21;;;;;;;13.05;6.43;;;12.50;99.90;;;;;;4872776;29;20466;-82
2022/10/26 08:50:10;;;;;;;15.85;6.93;;;12.50;99.90;;;;;;4849293;29;20056;-82
2022/10/26 08:52:45;;;;;;;10.38;5.68;;;12.70;99.90;;;;;;4864119;29;20532;-82
2022/10/26 08:55:16;;;;;;;13.65;5.38;;;12.80;99.90;;;;;;4847554;29;20132;-82
2022/10/26 08:57:46;;;;;;;10.13;5.35;;;12.90;99.90;;;;;;4861891;29;20252;-82
2022/10/26 09:00:19;;;;;;;14.65;5.38;;;13.00;99.90;;;;;;4847345;29;20055;-82
2022/10/26 09:02:49;;;;;;;10.10;4.90;;;13.10;99.90;;;;;;4866610;29;20084;-81
2022/10/26 09:05:17;;;;;;;11.05;5.22;;;13.20;99.90;;;;;;4847414;29;20403;-81
2022/10/26 09:07:47;;;;;;;13.60;4.70;;;13.20;99.90;;;;;;4863442;29;20052;-83
2022/10/26 09:10:38;;;;;;;11.00;5.35;;;13.30;99.90;;;;;;4854599;29;20100;-82
2022/10/26 09:13:13;;;;;;;10.25;4.65;;;13.30;99.90;;;;;;4857797;29;20049;-83
2022/10/26 09:16:01;;;;;;;11.20;4.68;;;13.40;99.90;;;;;;4857923;29;20053;-82
2022/10/26 09:18:33;;;;;;;10.18;4.13;;;13.50;99.90;;;;;;4857429;29;20183;-83
2022/10/26 09:21:14;;;;;;;12.68;4.47;;;13.50;99.90;;;;;;4873443;29;20482;-82
2022/10/26 09:23:48;;;;;;;10.30;4.72;;;13.60;99.90;;;;;;4872472;29;20105;-83
2022/10/26 09:26:28;;;;;;;10.23;4.50;;;13.60;99.90;;;;;;4869817;29;20172;-83
2022/10/26 09:28:56;;;;;;;8.82;4.13;;;13.70;99.90;;;;;;4846949;29;20045;-83
2022/10/26 09:31:23;;;;;;;10.30;4.00;;;13.70;99.90;;;;;;4858851;29;20577;-82
2022/10/26 09:33:50;;;;;;;8.40;4.30;;;13.80;99.90;;;;;;4853182;29;20046;-82
2022/10/26 09:36:19;;;;;;;9.23;4.40;;;14.10;99.90;;;;;;4838963;29;20563;-82
2022/10/26 09:39:00;;;;;;;11.95;4.32;;;14.00;99.90;;;;;;4838501;29;20083;-83
2022/10/26 09:41:35;;;;;;;9.38;3.78;;;14.20;99.90;;;;;;4855883;29;20110;-82
2022/10/26 09:44:17;;;;;;;10.70;3.53;;;14.20;99.90;;;;;;4841792;29;20538;-83
2022/10/26 09:46:48;;;;;;;12.23;3.72;;;14.30;99.90;;;;;;4858407;29;20494;-82
2022/10/26 09:49:16;;;;;;;9.02;3.20;;;14.30;99.90;;;;;;4842029;29;20050;-82
2022/10/26 09:51:43;;;;;;;9.90;3.80;;;14.40;99.90;;;;;;4857397;29;20494;-82
2022/10/26 09:54:16;;;;;;;8.43;3.67;;;14.50;99.90;;;;;;4857865;29;20098;-82
2022/10/26 09:56:46;;;;;;;9.05;3.55;;;14.70;99.90;;;;;;4842089;29;20382;-82
2022/10/26 09:59:12;;;;;;;10.77;3.60;;;14.80;99.90;;;;;;4842069;29;20321;-83
2022/10/26 10:01:38;;;;;;;7.45;3.30;;;14.80;99.90;;;;;;4842227;29;20148;-82
2022/10/26 10:04:15;;;;;;;20.05;3.50;;;14.90;99.90;;;;;;4856614;29;20140;-83
2022/10/26 10:06:44;;;;;;;17.90;3.70;;;15.00;99.90;;;;;;4826571;29;20052;-83
2022/10/26 10:09:13;;;;;;;13.90;2.90;;;15.10;99.90;;;;;;4826945;29;20063;-83
2022/10/26 10:11:44;;;;;;;9.45;3.03;;;15.20;99.90;;;;;;4841499;29;20087;-83
2022/10/26 10:14:16;;;;;;;10.73;2.85;;;15.30;99.90;;;;;;4827175;29;20513;-83
2022/10/26 10:16:52;;;;;;;7.15;2.42;;;15.50;99.90;;;;;;4857637;29;20053;-82
2022/10/26 10:19:23;;;;;;;10.18;2.40;;;15.50;99.90;;;;;;4856168;29;20049;-82
2022/10/26 10:21:51;;;;;;;7.63;2.20;;;15.60;99.90;;;;;;4857481;29;20065;-83
2022/10/26 10:24:27;;;;;;;13.93;2.20;;;15.70;99.90;;;;;;4857646;29;20407;-83
2022/10/26 10:26:59;;;;;;;5.95;2.42;;;15.80;99.90;;;;;;4856292;29;20087;-83
2022/10/26 10:29:32;;;;;;;7.07;2.17;;;15.80;99.90;;;;;;4857246;29;20521;-83
2022/10/26 10:32:00;;;;;;;8.82;2.38;;;15.90;99.90;;;;;;4857450;29;20049;-83
2022/10/26 10:34:29;;;;;;;7.03;1.77;;;16.00;99.90;;;;;;4840639;29;20052;-83
2022/10/26 10:36:55;;;;;;;6.53;2.03;;;16.00;99.90;;;;;;4842123;29;20057;-83
2022/10/26 10:39:37;;;;;;;4.40;1.65;;;16.00;99.90;;;;;;4856667;29;20045;-82
2022/10/26 10:42:12;;;;;;;6.32;2.15;;;16.00;99.90;;;;;;4841771;29;20513;-82
2022/10/26 10:44:38;;;;;;;9.43;1.85;;;16.00;99.90;;;;;;4857219;29;20566;-83
2022/10/26 10:47:06;;;;;;;8.02;2.10;;;16.00;99.90;;;;;;4856722;29;20049;-83
2022/10/26 10:49:32;;;;;;;12.32;2.35;;;16.00;99.90;;;;;;4872114;29;20060;-82
2022/10/26 10:51:59;;;;;;;6.43;1.83;;;16.10;99.90;;;;;;4856434;29;20053;-82
2022/10/26 10:54:34;;;;;;;6.35;2.03;;;16.10;99.90;;;;;;4856018;29;20089;-83
2022/10/26 10:57:15;;;;;;;9.70;2.00;;;16.10;99.90;;;;;;4825967;29;20045;-83
2022/10/26 10:59:47;;;;;;;8.60;1.80;;;16.20;99.90;;;;;;4826154;29;20049;-83
2022/10/26 11:02:40;;;;;;;8.68;2.08;;;16.20;99.90;;;;;;4856318;29;20049;-82
2022/10/26 11:05:19;;;;;;;12.05;1.90;;;16.30;99.90;;;;;;4841700;29;20057;-83
2022/10/26 11:07:56;;;;;;;11.63;2.00;;;16.30;99.90;;;;;;4840285;29;20045;-83
2022/10/26 11:10:26;;;;;;;7.93;1.60;;;16.40;99.90;;;;;;4872473;29;20057;-83
2022/10/26 11:12:57;;;;;;;6.13;1.90;;;16.50;99.90;;;;;;4840603;29;20053;-84
2022/10/26 11:15:27;;;;;;;13.23;2.60;;;16.50;99.90;;;;;;4840796;29;20056;-82
2022/10/26 11:17:59;;;;;;;11.00;2.35;;;16.60;99.90;;;;;;4855679;29;20050;-83
2022/10/26 11:20:27;;;;;;;7.53;1.83;;;16.60;99.90;;;;;;4841101;29;20132;-83
2022/10/26 11:23:11;;;;;;;7.38;2.00;;;16.60;99.90;;;;;;4840306;29;20306;-83
2022/10/26 11:25:42;;;;;;;8.88;2.67;;;16.70;99.90;;;;;;4826154;29;20416;-83
2022/10/26 11:28:16;;;;;;;9.55;2.58;;;16.80;99.90;;;;;;4825760;29;20046;-82
2022/10/26 11:30:50;;;;;;;11.30;2.13;;;16.80;99.90;;;;;;4840211;29;20636;-83
2022/10/26 11:33:29;;;;;;;10.52;2.83;;;16.90;99.90;;;;;;4840393;29;20050;-83
2022/10/26 11:36:04;;;;;;;8.70;1.90;;;16.90;99.90;;;;;;4840602;29;20058;-83
2022/10/26 11:38:41;;;;;;;8.75;2.03;;;16.90;99.90;;;;;;4840410;29;20125;-83
2022/10/26 11:41:17;;;;;;;9.15;2.55;;;16.90;99.90;;;;;;4856260;29;20443;-83
2022/10/26 11:43:48;;;;;;;6.65;2.45;;;16.90;99.90;;;;;;4839928;29;20048;-83
2022/10/26 11:46:27;;;;;;;9.38;2.30;;;16.90;99.90;;;;;;4841252;29;20101;-83
2022/10/26 11:49:03;;;;;;;6.78;1.92;;;16.90;99.90;;;;;;4839108;29;20463;-83
2022/10/26 11:51:36;;;;;;;13.38;2.28;;;17.00;99.90;;;;;;4839757;29;20109;-83
2022/10/26 11:54:09;;;;;;;10.82;2.83;;;17.10;99.90;;;;;;4855559;29;20132;-83
2022/10/26 11:56:43;;;;;;;8.85;1.95;;;17.20;99.90;;;;;;4840334;29;20475;-83
2022/10/26 11:59:22;;;;;;;12.38;2.75;;;17.20;99.90;;;;;;4855335;29;20092;-83
2022/10/26 12:01:52;;;;;;;5.63;2.30;;;17.30;99.90;;;;;;4839974;29;20066;-83
2022/10/26 12:04:22;;;;;;;8.13;2.40;;;17.30;99.90;;;;;;4838516;29;20128;-83
2022/10/26 12:06:53;;;;;;;8.85;2.63;;;17.30;99.90;;;;;;4855571;29;20186;-83
2022/10/26 12:09:25;;;;;;;8.50;2.28;;;17.40;99.90;;;;;;4856140;29;20056;-83
2022/10/26 12:12:03;;;;;;;10.32;3.45;;;17.40;99.90;;;;;;4854908;29;20370;-83
2022/10/26 12:14:40;;;;;;;7.90;2.20;;;17.50;99.90;;;;;;4843888;29;20048;-83
2022/10/26 12:17:14;;;;;;;7.60;2.35;;;17.50;99.90;;;;;;4859959;29;20140;-87
2022/10/26 12:19:54;;;;;;;14.75;2.42;;;17.50;99.90;;;;;;4843406;29;20049;-86
2022/10/26 12:22:25;;;;;;;9.93;2.78;;;17.50;99.90;;;;;;4875952;29;20053;-85
2022/10/26 12:25:19;;;;;;;7.93;2.78;;;17.50;99.90;;;;;;5022611;27;1928924;-88
2022/10/26 12:27:44;;;;;;;6.35;2.10;;;17.50;99.90;;;;;;5033439;28;20067;-87
2022/10/26 12:30:24;;;;;;;13.40;2.15;;;17.50;99.90;;;;;;5049576;28;20043;-87
2022/10/26 12:32:54;;;;;;;13.35;2.53;;;17.60;99.90;;;;;;5032329;28;20040;-85
2022/10/26 12:35:36;;;;;;;10.23;2.38;;;17.60;99.90;;;;;;5050004;28;20048;-87
2022/10/26 12:38:23;;;;;;;11.13;2.38;;;17.60;99.90;;;;;;5032895;28;20032;-88
2022/10/26 12:41:22;;;;;;;7.63;2.20;;;17.60;99.90;;;;;;5032840;28;20114;-87
2022/10/26 12:43:48;;;;;;;7.05;1.73;;;17.60;99.90;;;;;;5032481;28;20033;-88
2022/10/26 12:46:13;;;;;;;8.32;1.85;;;17.70;99.90;;;;;;5050506;28;20041;-88
2022/10/26 12:48:42;;;;;;;10.27;2.17;;;17.70;99.90;;;;;;5032401;28;20576;-87
2022/10/26 12:51:21;;;;;;;10.30;2.38;;;17.70;99.90;;;;;;5032737;28;20082;-87
2022/10/26 12:53:57;;;;;;;8.05;1.98;;;17.70;99.90;;;;;;5032634;28;20469;-87